sensor_id;sensor_type;location;lat;lon;timestamp;P1;durP1;ratioP1;P2;durP2;ratioP2
72117;SDS011;59992;47.490;8.736;2023-02-01T00:00:11;5.70;;;2.60;;
72117;SDS011;59992;47.490;8.736;2023-02-01T00:02:41;7.70;;;2.90;;
72117;SDS011;59992;47.490;8.736;2023-02-01T00:05:10;6.80;;;2.90;;
72117;SDS011;59992;47.490;8.736;2023-02-01T00:07:40;4.70;;;2.60;;
72117;SDS011;59992;47.490;8.736;2023-02-01T00:10:12;5.70;;;2.60;;
72117;SDS011;59992;47.490;8.736;2023-02-01T00:12:42;6.40;;;2.50;;
72117;SDS011;59992;47.490;8.736;2023-02-01T00:15:11;6.50;;;3.00;;
72117;SDS011;59992;47.490;8.736;2023-02-01T00:17:42;4.40;;;2.60;;
72117;SDS011;59992;47.490;8.736;2023-02-01T00:20:12;4.30;;;1.70;;
72117;SDS011;59992;47.490;8.736;2023-02-01T00:22:41;4.70;;;2.60;;
72117;SDS011;59992;47.490;8.736;2023-02-01T00:25:11;5.90;;;2.90;;
72117;SDS011;59992;47.490;8.736;2023-02-01T00:27:40;7.50;;;2.80;;
72117;SDS011;59992;47.490;8.736;2023-02-01T00:30:12;7.10;;;2.80;;
72117;SDS011;59992;47.490;8.736;2023-02-01T00:32:41;6.10;;;3.00;;
72117;SDS011;59992;47.490;8.736;2023-02-01T00:35:11;6.10;;;3.00;;
72117;SDS011;59992;47.490;8.736;2023-02-01T00:37:40;6.30;;;2.60;;
72117;SDS011;59992;47.490;8.736;2023-02-01T00:40:11;6.00;;;2.50;;
72117;SDS011;59992;47.490;8.736;2023-02-01T00:42:42;5.70;;;2.40;;
72117;SDS011;59992;47.490;8.736;2023-02-01T00:45:11;9.10;;;2.90;;
72117;SDS011;59992;47.490;8.736;2023-02-01T00:47:41;5.90;;;2.90;;
72117;SDS011;59992;47.490;8.736;2023-02-01T00:50:11;7.80;;;2.90;;
72117;SDS011;59992;47.490;8.736;2023-02-01T00:52:41;6.80;;;3.20;;
72117;SDS011;59992;47.490;8.736;2023-02-01T00:55:10;5.90;;;2.90;;
72117;SDS011;59992;47.490;8.736;2023-02-01T00:57:40;5.80;;;3.30;;
72117;SDS011;59992;47.490;8.736;2023-02-01T01:00:11;6.20;;;3.10;;
72117;SDS011;59992;47.490;8.736;2023-02-01T01:02:42;6.60;;;3.10;;
72117;SDS011;59992;47.490;8.736;2023-02-01T01:05:12;8.10;;;3.90;;
72117;SDS011;59992;47.490;8.736;2023-02-01T01:07:41;8.20;;;3.30;;
72117;SDS011;59992;47.490;8.736;2023-02-01T01:10:11;8.20;;;3.50;;
72117;SDS011;59992;47.490;8.736;2023-02-01T01:12:41;9.40;;;3.90;;
72117;SDS011;59992;47.490;8.736;2023-02-01T01:15:11;9.20;;;3.40;;
72117;SDS011;59992;47.490;8.736;2023-02-01T01:17:41;8.80;;;3.70;;
72117;SDS011;59992;47.490;8.736;2023-02-01T01:20:13;8.00;;;3.30;;
72117;SDS011;59992;47.490;8.736;2023-02-01T01:22:43;8.70;;;3.80;;
72117;SDS011;59992;47.490;8.736;2023-02-01T01:25:13;7.80;;;4.10;;
72117;SDS011;59992;47.490;8.736;2023-02-01T01:27:42;8.70;;;3.60;;
72117;SDS011;59992;47.490;8.736;2023-02-01T01:30:12;7.00;;;3.40;;
72117;SDS011;59992;47.490;8.736;2023-02-01T01:32:42;7.60;;;3.70;;
72117;SDS011;59992;47.490;8.736;2023-02-01T01:35:11;7.30;;;3.70;;
72117;SDS011;59992;47.490;8.736;2023-02-01T01:37:40;9.20;;;3.50;;
72117;SDS011;59992;47.490;8.736;2023-02-01T01:40:12;8.50;;;4.20;;
72117;SDS011;59992;47.490;8.736;2023-02-01T01:42:42;7.90;;;3.80;;
72117;SDS011;59992;47.490;8.736;2023-02-01T01:45:19;8.80;;;3.60;;
72117;SDS011;59992;47.490;8.736;2023-02-01T01:47:53;9.70;;;4.00;;
72117;SDS011;59992;47.490;8.736;2023-02-01T01:50:25;10.30;;;4.00;;
72117;SDS011;59992;47.490;8.736;2023-02-01T01:52:58;6.90;;;3.80;;
72117;SDS011;59992;47.490;8.736;2023-02-01T01:55:33;8.30;;;4.30;;
72117;SDS011;59992;47.490;8.736;2023-02-01T01:58:08;9.90;;;3.90;;
72117;SDS011;59992;47.490;8.736;2023-02-01T02:00:40;11.10;;;4.50;;
72117;SDS011;59992;47.490;8.736;2023-02-01T02:03:13;10.20;;;3.90;;
72117;SDS011;59992;47.490;8.736;2023-02-01T02:05:46;8.30;;;3.80;;
72117;SDS011;59992;47.490;8.736;2023-02-01T02:08:18;7.80;;;3.80;;
72117;SDS011;59992;47.490;8.736;2023-02-01T02:10:49;8.10;;;3.60;;
72117;SDS011;59992;47.490;8.736;2023-02-01T02:13:29;9.10;;;4.00;;
72117;SDS011;59992;47.490;8.736;2023-02-01T02:16:08;10.40;;;3.80;;
72117;SDS011;59992;47.490;8.736;2023-02-01T02:18:50;9.60;;;4.00;;
72117;SDS011;59992;47.490;8.736;2023-02-01T02:21:44;9.40;;;4.50;;
72117;SDS011;59992;47.490;8.736;2023-02-01T02:27:18;11.60;;;4.90;;
72117;SDS011;59992;47.490;8.736;2023-02-01T02:33:13;10.70;;;4.10;;
72117;SDS011;59992;47.490;8.736;2023-02-01T02:35:58;10.70;;;4.70;;
72117;SDS011;59992;47.490;8.736;2023-02-01T02:38:35;9.20;;;4.60;;
72117;SDS011;59992;47.490;8.736;2023-02-01T02:41:13;12.70;;;4.50;;
72117;SDS011;59992;47.490;8.736;2023-02-01T02:44:08;11.40;;;3.90;;
72117;SDS011;59992;47.490;8.736;2023-02-01T02:47:02;12.80;;;4.50;;
72117;SDS011;59992;47.490;8.736;2023-02-01T02:50:01;9.20;;;4.70;;
72117;SDS011;59992;47.490;8.736;2023-02-01T02:52:56;10.30;;;5.00;;
72117;SDS011;59992;47.490;8.736;2023-02-01T02:55:48;10.90;;;4.40;;
72117;SDS011;59992;47.490;8.736;2023-02-01T02:58:35;10.00;;;4.60;;
72117;SDS011;59992;47.490;8.736;2023-02-01T03:01:26;7.20;;;3.30;;
72117;SDS011;59992;47.490;8.736;2023-02-01T03:04:15;9.10;;;4.10;;
72117;SDS011;59992;47.490;8.736;2023-02-01T03:06:46;9.80;;;4.60;;
72117;SDS011;59992;47.490;8.736;2023-02-01T03:09:18;9.50;;;5.00;;
72117;SDS011;59992;47.490;8.736;2023-02-01T03:11:55;10.50;;;4.40;;
72117;SDS011;59992;47.490;8.736;2023-02-01T03:14:48;9.30;;;4.80;;
72117;SDS011;59992;47.490;8.736;2023-02-01T03:17:30;10.00;;;4.50;;
72117;SDS011;59992;47.490;8.736;2023-02-01T03:20:06;12.40;;;4.30;;
72117;SDS011;59992;47.490;8.736;2023-02-01T03:22:40;9.50;;;4.70;;
72117;SDS011;59992;47.490;8.736;2023-02-01T03:25:12;11.80;;;4.70;;
72117;SDS011;59992;47.490;8.736;2023-02-01T03:27:47;9.20;;;4.00;;
72117;SDS011;59992;47.490;8.736;2023-02-01T03:30:21;10.20;;;4.30;;
72117;SDS011;59992;47.490;8.736;2023-02-01T03:32:55;8.00;;;4.20;;
72117;SDS011;59992;47.490;8.736;2023-02-01T03:35:29;8.60;;;4.30;;
72117;SDS011;59992;47.490;8.736;2023-02-01T03:38:03;11.20;;;4.40;;
72117;SDS011;59992;47.490;8.736;2023-02-01T03:40:46;9.10;;;4.40;;
72117;SDS011;59992;47.490;8.736;2023-02-01T03:43:19;10.50;;;4.80;;
72117;SDS011;59992;47.490;8.736;2023-02-01T03:45:54;8.40;;;4.20;;
72117;SDS011;59992;47.490;8.736;2023-02-01T03:48:27;11.30;;;4.50;;
72117;SDS011;59992;47.490;8.736;2023-02-01T03:50:59;11.40;;;4.60;;
72117;SDS011;59992;47.490;8.736;2023-02-01T03:53:32;10.90;;;4.80;;
72117;SDS011;59992;47.490;8.736;2023-02-01T03:56:05;10.00;;;4.70;;
72117;SDS011;59992;47.490;8.736;2023-02-01T03:58:39;8.30;;;4.70;;
72117;SDS011;59992;47.490;8.736;2023-02-01T04:01:27;11.20;;;4.60;;
72117;SDS011;59992;47.490;8.736;2023-02-01T04:03:58;18.30;;;5.10;;
72117;SDS011;59992;47.490;8.736;2023-02-01T04:06:28;10.30;;;4.40;;
72117;SDS011;59992;47.490;8.736;2023-02-01T04:08:57;10.30;;;4.90;;
72117;SDS011;59992;47.490;8.736;2023-02-01T04:11:27;11.40;;;5.00;;
72117;SDS011;59992;47.490;8.736;2023-02-01T04:13:57;11.00;;;4.70;;
72117;SDS011;59992;47.490;8.736;2023-02-01T04:16:31;8.40;;;4.40;;
72117;SDS011;59992;47.490;8.736;2023-02-01T04:19:01;9.50;;;4.30;;
72117;SDS011;59992;47.490;8.736;2023-02-01T04:21:31;10.30;;;5.20;;
72117;SDS011;59992;47.490;8.736;2023-02-01T04:24:01;9.70;;;4.60;;
72117;SDS011;59992;47.490;8.736;2023-02-01T04:26:32;9.60;;;4.50;;
72117;SDS011;59992;47.490;8.736;2023-02-01T04:29:01;10.20;;;4.50;;
72117;SDS011;59992;47.490;8.736;2023-02-01T04:31:32;9.60;;;4.40;;
72117;SDS011;59992;47.490;8.736;2023-02-01T04:34:03;10.50;;;4.40;;
72117;SDS011;59992;47.490;8.736;2023-02-01T04:36:33;9.50;;;4.10;;
72117;SDS011;59992;47.490;8.736;2023-02-01T04:39:03;11.70;;;4.10;;
72117;SDS011;59992;47.490;8.736;2023-02-01T04:41:33;7.80;;;4.10;;
72117;SDS011;59992;47.490;8.736;2023-02-01T04:44:03;8.40;;;3.10;;
72117;SDS011;59992;47.490;8.736;2023-02-01T04:46:33;8.90;;;4.10;;
72117;SDS011;59992;47.490;8.736;2023-02-01T04:49:04;7.80;;;3.90;;
72117;SDS011;59992;47.490;8.736;2023-02-01T04:51:34;9.60;;;3.70;;
72117;SDS011;59992;47.490;8.736;2023-02-01T04:54:04;9.10;;;3.90;;
72117;SDS011;59992;47.490;8.736;2023-02-01T04:56:34;8.30;;;4.20;;
72117;SDS011;59992;47.490;8.736;2023-02-01T04:59:04;9.00;;;4.10;;
72117;SDS011;59992;47.490;8.736;2023-02-01T05:01:34;7.80;;;3.50;;
72117;SDS011;59992;47.490;8.736;2023-02-01T05:04:04;8.60;;;4.10;;
72117;SDS011;59992;47.490;8.736;2023-02-01T05:06:33;6.90;;;3.50;;
72117;SDS011;59992;47.490;8.736;2023-02-01T05:09:06;8.50;;;4.10;;
72117;SDS011;59992;47.490;8.736;2023-02-01T05:11:35;10.00;;;4.10;;
72117;SDS011;59992;47.490;8.736;2023-02-01T05:14:23;7.70;;;3.60;;
72117;SDS011;59992;47.490;8.736;2023-02-01T05:16:53;7.90;;;3.80;;
72117;SDS011;59992;47.490;8.736;2023-02-01T05:19:23;8.90;;;4.00;;
72117;SDS011;59992;47.490;8.736;2023-02-01T05:21:54;9.50;;;4.10;;
72117;SDS011;59992;47.490;8.736;2023-02-01T05:24:24;8.80;;;4.10;;
72117;SDS011;59992;47.490;8.736;2023-02-01T05:26:54;9.40;;;4.30;;
72117;SDS011;59992;47.490;8.736;2023-02-01T05:29:23;6.10;;;2.90;;
72117;SDS011;59992;47.490;8.736;2023-02-01T05:31:53;7.00;;;3.80;;
72117;SDS011;59992;47.490;8.736;2023-02-01T05:34:23;6.20;;;2.70;;
72117;SDS011;59992;47.490;8.736;2023-02-01T05:36:53;8.60;;;4.10;;
72117;SDS011;59992;47.490;8.736;2023-02-01T05:39:22;10.10;;;3.90;;
72117;SDS011;59992;47.490;8.736;2023-02-01T05:41:52;9.00;;;4.10;;
72117;SDS011;59992;47.490;8.736;2023-02-01T05:44:22;9.10;;;4.40;;
72117;SDS011;59992;47.490;8.736;2023-02-01T05:46:51;9.70;;;4.40;;
72117;SDS011;59992;47.490;8.736;2023-02-01T05:49:21;6.70;;;3.80;;
72117;SDS011;59992;47.490;8.736;2023-02-01T05:51:50;10.00;;;4.20;;
72117;SDS011;59992;47.490;8.736;2023-02-01T05:54:20;7.10;;;3.60;;
72117;SDS011;59992;47.490;8.736;2023-02-01T05:56:50;9.80;;;4.30;;
72117;SDS011;59992;47.490;8.736;2023-02-01T05:59:20;8.00;;;3.50;;
72117;SDS011;59992;47.490;8.736;2023-02-01T06:01:50;9.70;;;4.50;;
72117;SDS011;59992;47.490;8.736;2023-02-01T06:04:20;7.80;;;3.80;;
72117;SDS011;59992;47.490;8.736;2023-02-01T06:06:50;7.70;;;3.80;;
72117;SDS011;59992;47.490;8.736;2023-02-01T06:09:20;9.70;;;4.00;;
72117;SDS011;59992;47.490;8.736;2023-02-01T06:11:49;8.90;;;3.70;;
72117;SDS011;59992;47.490;8.736;2023-02-01T06:14:19;7.00;;;3.30;;
72117;SDS011;59992;47.490;8.736;2023-02-01T06:16:50;6.90;;;3.90;;
72117;SDS011;59992;47.490;8.736;2023-02-01T06:19:19;8.70;;;3.90;;
72117;SDS011;59992;47.490;8.736;2023-02-01T06:21:49;7.90;;;4.20;;
72117;SDS011;59992;47.490;8.736;2023-02-01T06:24:19;6.10;;;3.40;;
72117;SDS011;59992;47.490;8.736;2023-02-01T06:26:48;8.30;;;4.20;;
72117;SDS011;59992;47.490;8.736;2023-02-01T06:29:18;8.60;;;3.90;;
72117;SDS011;59992;47.490;8.736;2023-02-01T06:31:48;9.30;;;4.40;;
72117;SDS011;59992;47.490;8.736;2023-02-01T06:34:18;8.20;;;3.50;;
72117;SDS011;59992;47.490;8.736;2023-02-01T06:36:50;9.80;;;4.60;;
72117;SDS011;59992;47.490;8.736;2023-02-01T06:39:22;10.60;;;4.30;;
72117;SDS011;59992;47.490;8.736;2023-02-01T06:41:54;8.20;;;4.30;;
72117;SDS011;59992;47.490;8.736;2023-02-01T06:44:24;9.30;;;4.00;;
72117;SDS011;59992;47.490;8.736;2023-02-01T06:46:54;10.50;;;4.40;;
72117;SDS011;59992;47.490;8.736;2023-02-01T06:49:24;13.40;;;4.20;;
72117;SDS011;59992;47.490;8.736;2023-02-01T06:51:53;8.10;;;4.20;;
72117;SDS011;59992;47.490;8.736;2023-02-01T06:54:26;10.40;;;4.50;;
72117;SDS011;59992;47.490;8.736;2023-02-01T06:56:59;8.60;;;4.00;;
72117;SDS011;59992;47.490;8.736;2023-02-01T06:59:28;8.30;;;4.00;;
72117;SDS011;59992;47.490;8.736;2023-02-01T07:01:58;10.60;;;4.70;;
72117;SDS011;59992;47.490;8.736;2023-02-01T07:04:27;9.50;;;4.10;;
72117;SDS011;59992;47.490;8.736;2023-02-01T07:06:57;9.50;;;4.10;;
72117;SDS011;59992;47.490;8.736;2023-02-01T07:09:27;9.40;;;4.30;;
72117;SDS011;59992;47.490;8.736;2023-02-01T07:11:57;9.10;;;4.20;;
72117;SDS011;59992;47.490;8.736;2023-02-01T07:14:26;9.40;;;4.10;;
72117;SDS011;59992;47.490;8.736;2023-02-01T07:16:56;10.50;;;4.80;;
72117;SDS011;59992;47.490;8.736;2023-02-01T07:19:26;10.30;;;4.30;;
72117;SDS011;59992;47.490;8.736;2023-02-01T07:21:56;9.50;;;4.40;;
72117;SDS011;59992;47.490;8.736;2023-02-01T07:24:25;8.70;;;4.00;;
72117;SDS011;59992;47.490;8.736;2023-02-01T07:26:55;10.30;;;4.10;;
72117;SDS011;59992;47.490;8.736;2023-02-01T07:29:25;8.30;;;4.00;;
72117;SDS011;59992;47.490;8.736;2023-02-01T07:31:59;9.10;;;3.90;;
72117;SDS011;59992;47.490;8.736;2023-02-01T07:34:29;11.60;;;4.20;;
72117;SDS011;59992;47.490;8.736;2023-02-01T07:37:05;8.10;;;3.80;;
72117;SDS011;59992;47.490;8.736;2023-02-01T07:39:35;12.80;;;4.70;;
72117;SDS011;59992;47.490;8.736;2023-02-01T07:42:05;10.30;;;5.00;;
72117;SDS011;59992;47.490;8.736;2023-02-01T07:44:35;9.90;;;4.50;;
72117;SDS011;59992;47.490;8.736;2023-02-01T07:47:09;10.80;;;4.50;;
72117;SDS011;59992;47.490;8.736;2023-02-01T07:49:38;16.70;;;11.20;;
72117;SDS011;59992;47.490;8.736;2023-02-01T07:52:10;12.00;;;5.40;;
72117;SDS011;59992;47.490;8.736;2023-02-01T07:54:43;10.40;;;5.30;;
72117;SDS011;59992;47.490;8.736;2023-02-01T07:57:13;9.40;;;4.60;;
72117;SDS011;59992;47.490;8.736;2023-02-01T07:59:43;10.60;;;5.10;;
72117;SDS011;59992;47.490;8.736;2023-02-01T08:02:26;11.70;;;5.50;;
72117;SDS011;59992;47.490;8.736;2023-02-01T08:04:56;12.60;;;4.90;;
72117;SDS011;59992;47.490;8.736;2023-02-01T08:07:26;10.70;;;5.30;;
72117;SDS011;59992;47.490;8.736;2023-02-01T08:09:56;12.10;;;5.20;;
72117;SDS011;59992;47.490;8.736;2023-02-01T08:12:28;10.90;;;5.60;;
72117;SDS011;59992;47.490;8.736;2023-02-01T08:14:58;10.70;;;5.50;;
72117;SDS011;59992;47.490;8.736;2023-02-01T08:17:27;11.40;;;6.10;;
72117;SDS011;59992;47.490;8.736;2023-02-01T08:19:57;14.20;;;7.10;;
72117;SDS011;59992;47.490;8.736;2023-02-01T08:22:26;14.00;;;6.10;;
72117;SDS011;59992;47.490;8.736;2023-02-01T08:25:01;12.10;;;5.30;;
72117;SDS011;59992;47.490;8.736;2023-02-01T08:27:33;13.40;;;6.00;;
72117;SDS011;59992;47.490;8.736;2023-02-01T08:30:12;14.40;;;6.10;;
72117;SDS011;59992;47.490;8.736;2023-02-01T08:32:42;14.50;;;6.50;;
72117;SDS011;59992;47.490;8.736;2023-02-01T08:35:12;12.80;;;5.90;;
72117;SDS011;59992;47.490;8.736;2023-02-01T08:37:42;14.10;;;6.80;;
72117;SDS011;59992;47.490;8.736;2023-02-01T08:40:14;8.50;;;3.80;;
72117;SDS011;59992;47.490;8.736;2023-02-01T08:42:46;12.00;;;6.30;;
72117;SDS011;59992;47.490;8.736;2023-02-01T08:45:22;10.90;;;4.90;;
72117;SDS011;59992;47.490;8.736;2023-02-01T08:47:55;15.10;;;6.00;;
72117;SDS011;59992;47.490;8.736;2023-02-01T08:50:31;12.30;;;5.00;;
72117;SDS011;59992;47.490;8.736;2023-02-01T08:53:19;11.80;;;5.80;;
72117;SDS011;59992;47.490;8.736;2023-02-01T08:55:50;10.70;;;5.10;;
72117;SDS011;59992;47.490;8.736;2023-02-01T08:58:22;11.60;;;5.90;;
72117;SDS011;59992;47.490;8.736;2023-02-01T09:01:09;14.00;;;6.70;;
72117;SDS011;59992;47.490;8.736;2023-02-01T09:03:40;11.60;;;5.50;;
72117;SDS011;59992;47.490;8.736;2023-02-01T09:06:17;9.50;;;4.70;;
72117;SDS011;59992;47.490;8.736;2023-02-01T09:08:57;11.10;;;5.10;;
72117;SDS011;59992;47.490;8.736;2023-02-01T09:11:28;10.50;;;4.80;;
72117;SDS011;59992;47.490;8.736;2023-02-01T09:13:57;12.20;;;5.40;;
72117;SDS011;59992;47.490;8.736;2023-02-01T09:16:27;13.00;;;5.50;;
72117;SDS011;59992;47.490;8.736;2023-02-01T09:18:56;10.80;;;4.50;;
72117;SDS011;59992;47.490;8.736;2023-02-01T09:21:27;11.20;;;5.20;;
72117;SDS011;59992;47.490;8.736;2023-02-01T09:23:59;12.40;;;4.40;;
72117;SDS011;59992;47.490;8.736;2023-02-01T09:26:31;9.70;;;4.90;;
72117;SDS011;59992;47.490;8.736;2023-02-01T09:29:00;10.20;;;4.70;;
72117;SDS011;59992;47.490;8.736;2023-02-01T09:31:33;9.90;;;3.80;;
72117;SDS011;59992;47.490;8.736;2023-02-01T09:34:02;9.00;;;4.40;;
72117;SDS011;59992;47.490;8.736;2023-02-01T09:36:32;9.80;;;4.90;;
72117;SDS011;59992;47.490;8.736;2023-02-01T09:39:02;9.10;;;4.70;;
72117;SDS011;59992;47.490;8.736;2023-02-01T09:41:35;11.20;;;4.80;;
72117;SDS011;59992;47.490;8.736;2023-02-01T09:44:19;10.00;;;4.20;;
72117;SDS011;59992;47.490;8.736;2023-02-01T09:46:59;10.20;;;4.40;;
72117;SDS011;59992;47.490;8.736;2023-02-01T09:49:30;11.00;;;5.00;;
72117;SDS011;59992;47.490;8.736;2023-02-01T09:52:04;9.80;;;4.40;;
72117;SDS011;59992;47.490;8.736;2023-02-01T09:54:41;8.70;;;4.60;;
72117;SDS011;59992;47.490;8.736;2023-02-01T09:57:16;8.10;;;4.10;;
72117;SDS011;59992;47.490;8.736;2023-02-01T09:59:51;10.20;;;4.10;;
72117;SDS011;59992;47.490;8.736;2023-02-01T10:02:25;8.40;;;4.20;;
72117;SDS011;59992;47.490;8.736;2023-02-01T10:04:57;9.00;;;3.40;;
72117;SDS011;59992;47.490;8.736;2023-02-01T10:07:31;8.40;;;4.00;;
72117;SDS011;59992;47.490;8.736;2023-02-01T10:10:11;10.70;;;4.40;;
72117;SDS011;59992;47.490;8.736;2023-02-01T10:12:56;9.80;;;4.40;;
72117;SDS011;59992;47.490;8.736;2023-02-01T10:15:38;9.00;;;4.00;;
72117;SDS011;59992;47.490;8.736;2023-02-01T10:18:19;7.90;;;3.20;;
72117;SDS011;59992;47.490;8.736;2023-02-01T10:21:00;9.40;;;4.10;;
72117;SDS011;59992;47.490;8.736;2023-02-01T10:23:42;6.50;;;2.90;;
72117;SDS011;59992;47.490;8.736;2023-02-01T10:26:27;6.80;;;3.50;;
72117;SDS011;59992;47.490;8.736;2023-02-01T10:29:04;6.00;;;2.70;;
72117;SDS011;59992;47.490;8.736;2023-02-01T10:31:44;6.00;;;3.20;;
72117;SDS011;59992;47.490;8.736;2023-02-01T10:34:17;6.50;;;2.70;;
72117;SDS011;59992;47.490;8.736;2023-02-01T10:43:09;6.70;;;3.20;;
72117;SDS011;59992;47.490;8.736;2023-02-01T10:45:41;7.50;;;3.00;;
72117;SDS011;59992;47.490;8.736;2023-02-01T10:48:19;5.00;;;2.60;;
72117;SDS011;59992;47.490;8.736;2023-02-01T10:50:51;4.40;;;2.00;;
72117;SDS011;59992;47.490;8.736;2023-02-01T10:53:38;4.20;;;1.80;;
72117;SDS011;59992;47.490;8.736;2023-02-01T10:56:23;4.50;;;2.50;;
72117;SDS011;59992;47.490;8.736;2023-02-01T10:59:14;5.40;;;3.00;;
72117;SDS011;59992;47.490;8.736;2023-02-01T11:01:59;4.40;;;2.10;;
72117;SDS011;59992;47.490;8.736;2023-02-01T11:05:16;4.70;;;2.60;;
72117;SDS011;59992;47.490;8.736;2023-02-01T11:07:50;4.90;;;2.00;;
72117;SDS011;59992;47.490;8.736;2023-02-01T11:10:38;5.20;;;2.60;;
72117;SDS011;59992;47.490;8.736;2023-02-01T11:13:13;5.70;;;2.60;;
72117;SDS011;59992;47.490;8.736;2023-02-01T11:15:45;5.90;;;3.00;;
72117;SDS011;59992;47.490;8.736;2023-02-01T11:18:25;6.20;;;2.60;;
72117;SDS011;59992;47.490;8.736;2023-02-01T11:20:58;5.50;;;2.10;;
72117;SDS011;59992;47.490;8.736;2023-02-01T11:23:29;5.40;;;2.40;;
72117;SDS011;59992;47.490;8.736;2023-02-01T11:26:10;5.80;;;2.00;;
72117;SDS011;59992;47.490;8.736;2023-02-01T11:28:46;4.90;;;2.30;;
72117;SDS011;59992;47.490;8.736;2023-02-01T11:31:21;4.10;;;2.10;;
72117;SDS011;59992;47.490;8.736;2023-02-01T11:33:53;6.00;;;2.30;;
72117;SDS011;59992;47.490;8.736;2023-02-01T11:36:27;4.20;;;2.00;;
72117;SDS011;59992;47.490;8.736;2023-02-01T11:39:16;3.80;;;1.70;;
72117;SDS011;59992;47.490;8.736;2023-02-01T11:41:57;3.30;;;1.50;;
72117;SDS011;59992;47.490;8.736;2023-02-01T11:44:33;3.20;;;1.60;;
72117;SDS011;59992;47.490;8.736;2023-02-01T11:47:25;5.90;;;1.90;;
72117;SDS011;59992;47.490;8.736;2023-02-01T11:49:59;3.60;;;1.70;;
72117;SDS011;59992;47.490;8.736;2023-02-01T11:52:47;4.20;;;2.20;;
72117;SDS011;59992;47.490;8.736;2023-02-01T11:55:45;3.40;;;1.20;;
72117;SDS011;59992;47.490;8.736;2023-02-01T11:58:29;3.70;;;1.50;;
72117;SDS011;59992;47.490;8.736;2023-02-01T12:01:23;5.50;;;1.70;;
72117;SDS011;59992;47.490;8.736;2023-02-01T12:04:20;3.30;;;1.70;;
72117;SDS011;59992;47.490;8.736;2023-02-01T12:07:11;3.60;;;1.40;;
72117;SDS011;59992;47.490;8.736;2023-02-01T12:09:53;3.70;;;1.70;;
72117;SDS011;59992;47.490;8.736;2023-02-01T12:12:36;3.80;;;1.70;;
72117;SDS011;59992;47.490;8.736;2023-02-01T12:15:19;4.10;;;1.80;;
72117;SDS011;59992;47.490;8.736;2023-02-01T12:18:01;3.00;;;1.80;;
72117;SDS011;59992;47.490;8.736;2023-02-01T12:24:02;4.00;;;1.60;;
72117;SDS011;59992;47.490;8.736;2023-02-01T12:26:57;4.00;;;1.70;;
72117;SDS011;59992;47.490;8.736;2023-02-01T12:29:55;5.20;;;1.60;;
72117;SDS011;59992;47.490;8.736;2023-02-01T12:32:41;5.00;;;1.30;;
72117;SDS011;59992;47.490;8.736;2023-02-01T12:35:26;3.20;;;1.80;;
72117;SDS011;59992;47.490;8.736;2023-02-01T12:38:16;4.00;;;1.80;;
72117;SDS011;59992;47.490;8.736;2023-02-01T12:40:56;5.00;;;1.70;;
72117;SDS011;59992;47.490;8.736;2023-02-01T12:43:38;3.80;;;1.50;;
72117;SDS011;59992;47.490;8.736;2023-02-01T12:46:12;4.80;;;2.00;;
72117;SDS011;59992;47.490;8.736;2023-02-01T12:48:51;4.60;;;1.70;;
72117;SDS011;59992;47.490;8.736;2023-02-01T12:51:28;4.60;;;1.90;;
72117;SDS011;59992;47.490;8.736;2023-02-01T12:54:02;5.50;;;1.70;;
72117;SDS011;59992;47.490;8.736;2023-02-01T12:56:40;4.10;;;1.40;;
72117;SDS011;59992;47.490;8.736;2023-02-01T12:59:16;6.40;;;1.60;;
72117;SDS011;59992;47.490;8.736;2023-02-01T13:01:53;4.40;;;1.70;;
72117;SDS011;59992;47.490;8.736;2023-02-01T13:04:30;3.30;;;1.40;;
72117;SDS011;59992;47.490;8.736;2023-02-01T13:07:11;3.50;;;1.80;;
72117;SDS011;59992;47.490;8.736;2023-02-01T13:09:47;3.20;;;1.20;;
72117;SDS011;59992;47.490;8.736;2023-02-01T13:12:21;3.40;;;1.30;;
72117;SDS011;59992;47.490;8.736;2023-02-01T13:15:00;4.80;;;1.30;;
72117;SDS011;59992;47.490;8.736;2023-02-01T13:17:38;2.50;;;1.30;;
72117;SDS011;59992;47.490;8.736;2023-02-01T13:20:16;4.80;;;1.20;;
72117;SDS011;59992;47.490;8.736;2023-02-01T13:23:02;2.70;;;1.00;;
72117;SDS011;59992;47.490;8.736;2023-02-01T13:25:37;5.10;;;1.40;;
72117;SDS011;59992;47.490;8.736;2023-02-01T13:28:18;4.30;;;1.10;;
72117;SDS011;59992;47.490;8.736;2023-02-01T13:31:10;5.10;;;1.70;;
72117;SDS011;59992;47.490;8.736;2023-02-01T13:34:03;7.20;;;1.30;;
72117;SDS011;59992;47.490;8.736;2023-02-01T13:36:58;5.30;;;1.50;;
72117;SDS011;59992;47.490;8.736;2023-02-01T13:39:54;3.70;;;0.90;;
72117;SDS011;59992;47.490;8.736;2023-02-01T13:42:52;4.40;;;0.80;;
72117;SDS011;59992;47.490;8.736;2023-02-01T13:45:32;4.10;;;0.90;;
72117;SDS011;59992;47.490;8.736;2023-02-01T13:48:24;4.10;;;1.10;;
72117;SDS011;59992;47.490;8.736;2023-02-01T13:50:58;3.90;;;1.20;;
72117;SDS011;59992;47.490;8.736;2023-02-01T13:53:29;4.60;;;1.10;;
72117;SDS011;59992;47.490;8.736;2023-02-01T13:56:06;4.60;;;1.30;;
72117;SDS011;59992;47.490;8.736;2023-02-01T13:58:45;4.70;;;1.10;;
72117;SDS011;59992;47.490;8.736;2023-02-01T14:01:34;3.30;;;0.90;;
72117;SDS011;59992;47.490;8.736;2023-02-01T14:04:05;6.00;;;1.60;;
72117;SDS011;59992;47.490;8.736;2023-02-01T14:07:15;6.70;;;1.40;;
72117;SDS011;59992;47.490;8.736;2023-02-01T14:09:48;5.30;;;1.10;;
72117;SDS011;59992;47.490;8.736;2023-02-01T14:15:19;6.00;;;1.00;;
72117;SDS011;59992;47.490;8.736;2023-02-01T14:17:54;3.30;;;1.00;;
72117;SDS011;59992;47.490;8.736;2023-02-01T14:23:21;3.50;;;0.80;;
72117;SDS011;59992;47.490;8.736;2023-02-01T14:31:54;2.40;;;0.80;;
72117;SDS011;59992;47.490;8.736;2023-02-01T14:34:39;5.20;;;1.20;;
72117;SDS011;59992;47.490;8.736;2023-02-01T14:37:26;6.20;;;1.30;;
72117;SDS011;59992;47.490;8.736;2023-02-01T14:39:59;4.40;;;1.10;;
72117;SDS011;59992;47.490;8.736;2023-02-01T14:42:31;4.50;;;1.00;;
72117;SDS011;59992;47.490;8.736;2023-02-01T14:51:14;2.40;;;0.70;;
72117;SDS011;59992;47.490;8.736;2023-02-01T14:53:45;5.10;;;0.90;;
72117;SDS011;59992;47.490;8.736;2023-02-01T14:56:17;3.90;;;0.90;;
72117;SDS011;59992;47.490;8.736;2023-02-01T14:58:52;2.70;;;1.20;;
72117;SDS011;59992;47.490;8.736;2023-02-01T15:01:29;6.80;;;1.30;;
72117;SDS011;59992;47.490;8.736;2023-02-01T15:04:03;4.40;;;1.40;;
72117;SDS011;59992;47.490;8.736;2023-02-01T15:06:40;4.50;;;0.80;;
72117;SDS011;59992;47.490;8.736;2023-02-01T15:09:14;4.50;;;0.90;;
72117;SDS011;59992;47.490;8.736;2023-02-01T15:11:55;5.10;;;0.80;;
72117;SDS011;59992;47.490;8.736;2023-02-01T15:14:27;4.10;;;0.90;;
72117;SDS011;59992;47.490;8.736;2023-02-01T15:16:59;2.60;;;0.80;;
72117;SDS011;59992;47.490;8.736;2023-02-01T15:19:29;3.90;;;1.10;;
72117;SDS011;59992;47.490;8.736;2023-02-01T15:21:59;6.40;;;1.10;;
72117;SDS011;59992;47.490;8.736;2023-02-01T15:24:30;5.10;;;1.10;;
72117;SDS011;59992;47.490;8.736;2023-02-01T15:27:04;4.80;;;0.90;;
72117;SDS011;59992;47.490;8.736;2023-02-01T15:29:37;6.00;;;1.30;;
72117;SDS011;59992;47.490;8.736;2023-02-01T15:32:15;3.90;;;1.00;;
72117;SDS011;59992;47.490;8.736;2023-02-01T15:34:58;5.30;;;1.00;;
72117;SDS011;59992;47.490;8.736;2023-02-01T15:37:29;4.50;;;1.00;;
72117;SDS011;59992;47.490;8.736;2023-02-01T15:40:18;3.50;;;1.10;;
72117;SDS011;59992;47.490;8.736;2023-02-01T15:42:52;4.60;;;1.10;;
72117;SDS011;59992;47.490;8.736;2023-02-01T15:45:27;8.00;;;1.80;;
72117;SDS011;59992;47.490;8.736;2023-02-01T15:47:59;4.20;;;1.00;;
72117;SDS011;59992;47.490;8.736;2023-02-01T15:50:30;5.80;;;1.30;;
72117;SDS011;59992;47.490;8.736;2023-02-01T15:53:01;5.20;;;1.20;;
72117;SDS011;59992;47.490;8.736;2023-02-01T15:55:33;4.90;;;1.10;;
72117;SDS011;59992;47.490;8.736;2023-02-01T15:58:06;3.40;;;1.30;;
72117;SDS011;59992;47.490;8.736;2023-02-01T16:00:43;5.80;;;1.10;;
72117;SDS011;59992;47.490;8.736;2023-02-01T16:03:26;5.20;;;1.30;;